createdAt,value
2019-01-11T00:00:49.308Z,1018.29
2019-01-11T00:01:49.292Z,1018.27
2019-01-11T00:02:49.283Z,1018.29
2019-01-11T00:03:49.276Z,1018.27
2019-01-11T00:04:49.274Z,1018.26
2019-01-11T00:05:49.248Z,1018.28
2019-01-11T00:06:49.239Z,1018.24
2019-01-11T00:07:49.232Z,1018.24
2019-01-11T00:08:49.218Z,1018.27
2019-01-11T00:09:49.229Z,1018.29
2019-01-11T00:10:49.204Z,1018.29
2019-01-11T00:11:49.200Z,1018.30
2019-01-11T00:12:58.378Z,1018.29
2019-01-11T00:13:58.399Z,1018.21
2019-01-11T00:14:49.160Z,1018.23
2019-01-11T00:15:49.151Z,1018.19
2019-01-11T00:16:49.129Z,1018.19
2019-01-11T00:17:49.122Z,1018.17
2019-01-11T00:18:49.110Z,1018.22
2019-01-11T00:19:49.151Z,1018.20
2019-01-11T00:20:49.090Z,1018.17
2019-01-11T00:21:49.077Z,1018.20
2019-01-11T00:22:49.068Z,1018.21
2019-01-11T00:23:49.058Z,1018.17
2019-01-11T00:24:49.047Z,1018.13
2019-01-11T00:25:49.054Z,1018.17
2019-01-11T00:26:49.028Z,1018.11
2019-01-11T00:27:49.013Z,1018.11
2019-01-11T00:28:49.003Z,1018.16
2019-01-11T00:29:48.997Z,1018.12
2019-01-11T00:30:48.999Z,1018.15
2019-01-11T00:31:48.973Z,1018.15
2019-01-11T00:32:48.962Z,1018.12
2019-01-11T00:33:48.949Z,1018.08
2019-01-11T00:34:48.940Z,1018.11
2019-01-11T00:35:48.948Z,1018.15
2019-01-11T00:36:48.920Z,1018.11
2019-01-11T00:37:48.907Z,1018.04
2019-01-11T00:38:48.898Z,1018.08
2019-01-11T00:39:48.884Z,1018.08
2019-01-11T00:40:48.889Z,1018.04
2019-01-11T00:41:48.867Z,1018.03
2019-01-11T00:42:48.861Z,1018.04
2019-01-11T00:43:48.842Z,1018.04
2019-01-11T00:44:48.835Z,1018.08
2019-01-11T00:45:48.844Z,1018.06
2019-01-11T00:46:48.818Z,1018.05
2019-01-11T00:47:48.800Z,1018.03
2019-01-11T00:48:48.798Z,1018.05
2019-01-11T00:49:48.810Z,1018.01
2019-01-11T00:50:48.783Z,1017.98
2019-01-11T00:51:48.763Z,1017.93
2019-01-11T00:52:48.754Z,1017.94
2019-01-11T00:53:48.738Z,1017.91
2019-01-11T00:54:48.727Z,1017.94
2019-01-11T00:55:48.729Z,1017.86
2019-01-11T00:56:48.706Z,1017.88
2019-01-11T00:57:48.693Z,1017.92
2019-01-11T00:58:48.694Z,1017.91
2019-01-11T00:59:48.672Z,1017.90
2019-01-11T01:00:48.677Z,1017.84
2019-01-11T01:01:48.651Z,1017.85
2019-01-11T01:02:48.642Z,1017.91
2019-01-11T01:03:48.634Z,1017.84
2019-01-11T01:04:48.622Z,1017.83
2019-01-11T01:05:48.623Z,1017.81
2019-01-11T01:06:48.639Z,1017.79
2019-01-11T01:07:48.591Z,1017.87
2019-01-11T01:08:48.578Z,1017.91
2019-01-11T01:09:48.571Z,1017.74
2019-01-11T01:10:48.567Z,1017.74
2019-01-11T01:11:48.545Z,1017.75
2019-01-11T01:12:48.534Z,1017.78
2019-01-11T01:13:48.524Z,1017.80
2019-01-11T01:14:48.514Z,1017.76
2019-01-11T01:15:48.520Z,1017.81
2019-01-11T01:16:48.499Z,1017.84
2019-01-11T01:17:48.485Z,1017.76
2019-01-11T01:18:48.470Z,1017.82
2019-01-11T01:19:48.644Z,1017.77
2019-01-11T01:20:48.465Z,1017.79
2019-01-11T01:21:48.442Z,1017.85
2019-01-11T01:22:48.428Z,1017.82
2019-01-11T01:23:48.420Z,1017.75
2019-01-11T01:24:48.407Z,1017.84
2019-01-11T01:25:48.407Z,1017.81
2019-01-11T01:26:48.387Z,1017.75
2019-01-11T01:27:48.375Z,1017.74
2019-01-11T01:28:48.364Z,1017.87
2019-01-11T01:29:48.351Z,1017.80
2019-01-11T01:30:48.356Z,1017.85
2019-01-11T01:31:48.330Z,1017.83
2019-01-11T01:32:48.326Z,1017.75
2019-01-11T01:33:48.313Z,1017.76
2019-01-11T01:34:48.303Z,1017.78
2019-01-11T01:35:48.335Z,1017.79
2019-01-11T01:36:48.280Z,1017.73
2019-01-11T01:37:48.270Z,1017.72
2019-01-11T01:38:48.258Z,1017.76
2019-01-11T01:39:48.251Z,1017.66
2019-01-11T01:40:48.236Z,1017.62
2019-01-11T01:41:48.242Z,1017.65
2019-01-11T01:42:48.230Z,1017.60
2019-01-11T01:43:48.208Z,1017.56
2019-01-11T01:44:48.218Z,1017.65
2019-01-11T01:45:48.207Z,1017.58
2019-01-11T01:46:48.198Z,1017.68
2019-01-11T01:47:48.179Z,1017.62
2019-01-11T01:48:48.158Z,1017.67
2019-01-11T01:49:48.155Z,1017.63
2019-01-11T01:50:48.173Z,1017.60
2019-01-11T01:51:48.175Z,1017.57
2019-01-11T01:52:48.115Z,1017.65
2019-01-11T01:53:48.116Z,1017.58
2019-01-11T01:54:48.093Z,1017.61
2019-01-11T01:55:48.089Z,1017.59
2019-01-11T01:56:48.094Z,1017.58
2019-01-11T01:57:48.063Z,1017.58
2019-01-11T01:58:48.062Z,1017.54
2019-01-11T01:59:48.045Z,1017.55
2019-01-11T02:00:48.028Z,1017.53
2019-01-11T02:01:48.035Z,1017.50
2019-01-11T02:02:48.014Z,1017.54
2019-01-11T02:03:47.999Z,1017.59
2019-01-11T02:04:47.987Z,1017.51
2019-01-11T02:05:47.976Z,1017.50
2019-01-11T02:06:47.979Z,1017.55
2019-01-11T02:07:47.960Z,1017.47
2019-01-11T02:08:47.946Z,1017.45
2019-01-11T02:09:47.933Z,1017.45
2019-01-11T02:10:47.921Z,1017.46
2019-01-11T02:11:47.921Z,1017.44
2019-01-11T02:12:47.901Z,1017.44
2019-01-11T02:13:47.893Z,1017.37
2019-01-11T02:14:47.879Z,1017.40
2019-01-11T02:15:47.867Z,1017.41
2019-01-11T02:16:47.867Z,1017.42
2019-01-11T02:17:47.842Z,1017.41
2019-01-11T02:18:47.838Z,1017.48
2019-01-11T02:19:47.828Z,1017.40
2019-01-11T02:20:47.813Z,1017.41
2019-01-11T02:21:47.811Z,1017.37
2019-01-11T02:22:47.789Z,1017.36
2019-01-11T02:23:47.780Z,1017.36
2019-01-11T02:24:47.772Z,1017.38
2019-01-11T02:25:47.762Z,1017.38
2019-01-11T02:26:47.761Z,1017.31
2019-01-11T02:27:47.735Z,1017.33
2019-01-11T02:28:47.723Z,1017.22
2019-01-11T02:29:47.718Z,1017.28
2019-01-11T02:30:47.707Z,1017.21
2019-01-11T02:31:47.710Z,1017.31
2019-01-11T02:32:52.398Z,1017.30
2019-01-11T02:33:48.675Z,1017.22
2019-01-11T02:34:47.662Z,1017.19
2019-01-11T02:35:47.650Z,1017.21
2019-01-11T02:36:47.653Z,1017.23
2019-01-11T02:37:47.629Z,1017.25
2019-01-11T02:38:54.398Z,1017.16
2019-01-11T02:39:47.607Z,1017.18
2019-01-11T02:40:47.598Z,1017.13
2019-01-11T02:41:47.599Z,1017.14
2019-01-11T02:42:47.576Z,1017.15
2019-01-11T02:43:47.564Z,1017.13
2019-01-11T02:44:47.554Z,1017.10
2019-01-11T02:45:47.544Z,1017.05
2019-01-11T02:46:47.545Z,1017.14
2019-01-11T02:47:47.526Z,1017.08
2019-01-11T02:48:47.518Z,1017.02
2019-01-11T02:49:47.502Z,1017.08
2019-01-11T02:50:47.489Z,1017.02
2019-01-11T02:51:47.494Z,1017.07
2019-01-11T02:52:47.474Z,1016.97
2019-01-11T02:53:47.464Z,1016.98
2019-01-11T02:54:47.450Z,1016.98
2019-01-11T02:55:47.439Z,1016.94
2019-01-11T02:56:47.465Z,1016.99
2019-01-11T02:57:47.416Z,1016.97
2019-01-11T02:58:47.410Z,1016.94
2019-01-11T02:59:47.399Z,1016.87
2019-01-11T03:00:47.393Z,1016.88
2019-01-11T03:01:47.374Z,1016.86
2019-01-11T03:02:47.375Z,1016.77
2019-01-11T03:03:47.350Z,1016.87
2019-01-11T03:04:47.346Z,1016.81
2019-01-11T03:05:47.332Z,1016.79
2019-01-11T03:06:47.322Z,1016.70
2019-01-11T03:07:47.321Z,1016.72
2019-01-11T03:08:47.301Z,1016.74
2019-01-11T03:09:47.292Z,1016.65
2019-01-11T03:10:47.282Z,1016.66
2019-01-11T03:11:47.269Z,1016.62
2019-01-11T03:12:47.271Z,1016.60
2019-01-11T03:13:47.246Z,1016.56
2019-01-11T03:14:47.238Z,1016.54
2019-01-11T03:15:47.226Z,1016.51
2019-01-11T03:16:47.214Z,1016.52
2019-01-11T03:17:47.218Z,1016.44
2019-01-11T03:18:47.194Z,1016.49
2019-01-11T03:19:47.900Z,1016.44
2019-01-11T03:20:47.172Z,1016.45
2019-01-11T03:21:47.166Z,1016.42
2019-01-11T03:22:47.166Z,1016.40
2019-01-11T03:23:47.139Z,1016.39
2019-01-11T03:24:47.129Z,1016.41
2019-01-11T03:25:47.121Z,1016.40
2019-01-11T03:26:47.114Z,1016.31
2019-01-11T03:27:47.126Z,1016.35
2019-01-11T03:28:47.085Z,1016.33
2019-01-11T03:29:47.076Z,1016.35
2019-01-11T03:30:47.072Z,1016.23
2019-01-11T03:31:47.061Z,1016.26
2019-01-11T03:32:47.058Z,1016.23
2019-01-11T03:33:47.034Z,1016.28
2019-01-11T03:34:47.021Z,1016.20
2019-01-11T03:35:47.011Z,1016.17
2019-01-11T03:36:46.999Z,1016.24
2019-01-11T03:37:47.007Z,1016.21
2019-01-11T03:38:46.979Z,1016.20
2019-01-11T03:39:46.970Z,1016.18
2019-01-11T03:40:46.957Z,1016.12
2019-01-11T03:41:46.947Z,1016.14
2019-01-11T03:42:46.950Z,1016.08
2019-01-11T03:43:46.925Z,1016.13
2019-01-11T03:44:46.917Z,1016.03
2019-01-11T03:45:46.904Z,1015.98
2019-01-11T03:46:46.895Z,1016.00
2019-01-11T03:47:46.947Z,1015.97
2019-01-11T03:48:46.871Z,1015.97
2019-01-11T03:49:46.866Z,1015.98
2019-01-11T03:50:46.853Z,1015.96
2019-01-11T03:51:46.839Z,1015.98
2019-01-11T03:52:46.841Z,1016.03
2019-01-11T03:53:46.818Z,1015.96
2019-01-11T03:54:46.807Z,1015.98
2019-01-11T03:55:46.797Z,1015.98
2019-01-11T03:56:55.912Z,1016.01
2019-01-11T03:57:46.831Z,1016.00
2019-01-11T03:58:46.764Z,1015.95
2019-01-11T03:59:46.751Z,1015.98
2019-01-11T04:00:46.740Z,1015.95
2019-01-11T04:01:46.739Z,1015.99
2019-01-11T04:02:46.755Z,1015.86
2019-01-11T04:03:46.714Z,1015.89
2019-01-11T04:04:46.710Z,1015.89
2019-01-11T04:05:46.689Z,1015.82
2019-01-11T04:06:46.677Z,1015.77
2019-01-11T04:07:46.685Z,1015.80
2019-01-11T04:08:46.657Z,1015.79
2019-01-11T04:09:46.644Z,1015.76
2019-01-11T04:10:46.636Z,1015.74
2019-01-11T04:11:46.626Z,1015.77
2019-01-11T04:12:46.654Z,1015.69
2019-01-11T04:13:46.602Z,1015.74
2019-01-11T04:14:46.623Z,1015.69
2019-01-11T04:15:46.584Z,1015.73
2019-01-11T04:16:46.573Z,1015.71
2019-01-11T04:17:46.558Z,1015.75
2019-01-11T04:18:46.563Z,1015.67
2019-01-11T04:19:46.538Z,1015.66
2019-01-11T04:20:46.526Z,1015.63
2019-01-11T04:21:46.518Z,1015.65
2019-01-11T04:22:46.509Z,1015.61
2019-01-11T04:23:46.509Z,1015.58
2019-01-11T04:24:46.492Z,1015.62
2019-01-11T04:25:46.487Z,1015.56
2019-01-11T04:26:46.465Z,1015.58
2019-01-11T04:27:46.453Z,1015.52
2019-01-11T04:28:46.463Z,1015.49
2019-01-11T04:29:46.435Z,1015.55
2019-01-11T04:30:46.420Z,1015.48
2019-01-11T04:31:46.446Z,1015.41
2019-01-11T04:32:46.396Z,1015.31
2019-01-11T04:33:54.973Z,1015.34
2019-01-11T04:34:46.375Z,1015.29
2019-01-11T04:35:46.364Z,1015.25
2019-01-11T04:36:46.354Z,1015.28
2019-01-11T04:37:46.342Z,1015.25
2019-01-11T04:38:46.351Z,1015.29
2019-01-11T04:39:46.328Z,1015.25
2019-01-11T04:40:46.309Z,1015.20
2019-01-11T04:41:46.299Z,1015.25
2019-01-11T04:42:46.288Z,1015.22
2019-01-11T04:43:46.291Z,1015.31
2019-01-11T04:44:46.274Z,1015.25
2019-01-11T04:45:46.269Z,1015.19
2019-01-11T04:46:46.252Z,1015.16
2019-01-11T04:47:46.256Z,1015.17
2019-01-11T04:48:46.245Z,1015.12
2019-01-11T04:49:46.218Z,1015.13
2019-01-11T04:50:46.204Z,1015.13
2019-01-11T04:51:55.495Z,1015.15
2019-01-11T04:52:46.367Z,1015.11
2019-01-11T04:53:46.193Z,1015.09
2019-01-11T04:54:46.161Z,1015.05
2019-01-11T04:55:46.190Z,1015.05
2019-01-11T04:56:46.141Z,1015.06
2019-01-11T04:57:46.131Z,1015.10
2019-01-11T04:58:46.160Z,1015.08
2019-01-11T04:59:46.130Z,1015.06
2019-01-11T05:00:46.095Z,1014.99
2019-01-11T05:01:46.088Z,1015.02
2019-01-11T05:02:46.074Z,1014.99
2019-01-11T05:03:46.079Z,1015.01
2019-01-11T05:04:46.052Z,1014.97
2019-01-11T05:05:46.043Z,1015.06
2019-01-11T05:06:46.031Z,1014.94
2019-01-11T05:07:46.026Z,1014.90
2019-01-11T05:08:55.031Z,1014.92
2019-01-11T05:09:56.028Z,1014.90
2019-01-11T05:10:55.098Z,1014.88
2019-01-11T05:11:55.120Z,1014.87
2019-01-11T05:12:45.970Z,1014.86
2019-01-11T05:13:54.661Z,1014.82
2019-01-11T05:14:56.173Z,1014.80
2019-01-11T05:15:55.218Z,1014.90
2019-01-11T05:16:45.929Z,1014.86
2019-01-11T05:17:45.915Z,1014.73
2019-01-11T05:18:45.905Z,1014.70
2019-01-11T05:19:45.909Z,1014.78
2019-01-11T05:20:45.888Z,1014.68
2019-01-11T05:21:45.880Z,1014.67
2019-01-11T05:22:45.869Z,1014.68
2019-01-11T05:23:45.854Z,1014.68
2019-01-11T05:24:45.862Z,1014.71
2019-01-11T05:25:45.833Z,1014.65
2019-01-11T05:26:45.832Z,1014.62
2019-01-11T05:27:45.809Z,1014.68
2019-01-11T05:28:45.801Z,1014.70
2019-01-11T05:29:45.802Z,1014.59
2019-01-11T05:30:45.777Z,1014.67
2019-01-11T05:31:45.775Z,1014.65
2019-01-11T05:32:45.758Z,1014.67
2019-01-11T05:33:45.744Z,1014.64
2019-01-11T05:34:45.747Z,1014.68
2019-01-11T05:35:45.723Z,1014.63
2019-01-11T05:36:45.712Z,1014.62
2019-01-11T05:37:45.702Z,1014.68
2019-01-11T05:38:45.698Z,1014.59
2019-01-11T05:39:45.702Z,1014.62
2019-01-11T05:40:45.668Z,1014.53
2019-01-11T05:41:45.661Z,1014.54
2019-01-11T05:42:45.647Z,1014.51
2019-01-11T05:43:45.638Z,1014.57
2019-01-11T05:44:45.638Z,1014.50
2019-01-11T05:45:45.617Z,1014.46
2019-01-11T05:46:45.605Z,1014.47
2019-01-11T05:47:45.593Z,1014.43
2019-01-11T05:48:45.588Z,1014.41
2019-01-11T05:49:45.596Z,1014.37
2019-01-11T05:50:45.566Z,1014.44
2019-01-11T05:51:45.557Z,1014.30
2019-01-11T05:52:45.545Z,1014.41
2019-01-11T05:53:45.530Z,1014.37
2019-01-11T05:54:45.539Z,1014.29
2019-01-11T05:55:45.513Z,1014.34
2019-01-11T05:56:45.508Z,1014.30
2019-01-11T05:57:45.496Z,1014.36
2019-01-11T05:58:45.480Z,1014.30
2019-01-11T05:59:45.481Z,1014.29
2019-01-11T06:00:45.460Z,1014.30
2019-01-11T06:01:45.445Z,1014.24
2019-01-11T06:02:45.444Z,1014.25
2019-01-11T06:03:45.427Z,1014.23
2019-01-11T06:04:45.438Z,1014.26
2019-01-11T06:05:45.454Z,1014.13
2019-01-11T06:06:45.399Z,1014.19
2019-01-11T06:07:45.385Z,1014.07
2019-01-11T06:08:45.371Z,1014.14
2019-01-11T06:09:45.380Z,1014.05
2019-01-11T06:10:45.348Z,1014.09
2019-01-11T06:11:45.365Z,1014.06
2019-01-11T06:12:54.728Z,1014.03
2019-01-11T06:13:54.783Z,1014.10
2019-01-11T06:14:55.321Z,1014.03
2019-01-11T06:15:45.294Z,1014.03
2019-01-11T06:16:45.283Z,1014.07
2019-01-11T06:17:45.272Z,1014.05
2019-01-11T06:18:45.268Z,1014.00
2019-01-11T06:19:45.283Z,1014.01
2019-01-11T06:20:45.253Z,1014.05
2019-01-11T06:21:45.231Z,1013.97
2019-01-11T06:22:45.219Z,1013.96
2019-01-11T06:23:45.230Z,1013.91
2019-01-11T06:24:45.327Z,1013.87
2019-01-11T06:25:45.195Z,1013.87
2019-01-11T06:26:45.178Z,1013.81
2019-01-11T06:27:45.168Z,1013.91
2019-01-11T06:28:45.155Z,1013.81
2019-01-11T06:29:45.205Z,1013.92
2019-01-11T06:30:45.134Z,1013.84
2019-01-11T06:31:45.130Z,1013.93
2019-01-11T06:32:45.119Z,1013.87
2019-01-11T06:33:45.103Z,1013.85
2019-01-11T06:34:45.094Z,1013.87
2019-01-11T06:35:45.093Z,1013.82
2019-01-11T06:36:45.076Z,1013.87
2019-01-11T06:37:45.066Z,1013.79
2019-01-11T06:38:45.062Z,1013.85
2019-01-11T06:39:45.038Z,1013.80
2019-01-11T06:40:45.046Z,1013.73
2019-01-11T06:41:45.024Z,1013.75
2019-01-11T06:42:45.014Z,1013.73
2019-01-11T06:43:45.003Z,1013.72
2019-01-11T06:44:44.994Z,1013.73
2019-01-11T06:45:44.989Z,1013.74
2019-01-11T06:46:44.969Z,1013.66
2019-01-11T06:47:44.956Z,1013.66
2019-01-11T06:48:44.949Z,1013.68
2019-01-11T06:49:44.943Z,1013.67
2019-01-11T06:50:44.977Z,1013.67
2019-01-11T06:51:44.912Z,1013.60
2019-01-11T06:52:44.904Z,1013.62
2019-01-11T06:53:44.889Z,1013.65
2019-01-11T06:54:44.879Z,1013.55
2019-01-11T06:55:44.886Z,1013.61
2019-01-11T06:56:44.860Z,1013.59
2019-01-11T06:57:44.849Z,1013.65
2019-01-11T06:58:44.835Z,1013.71
2019-01-11T06:59:44.825Z,1013.64
2019-01-11T07:00:44.842Z,1013.63
2019-01-11T07:01:44.805Z,1013.65
2019-01-11T07:02:44.800Z,1013.63
2019-01-11T07:03:44.783Z,1013.67
2019-01-11T07:04:44.771Z,1013.61
2019-01-11T07:05:44.866Z,1013.68
2019-01-11T07:06:44.752Z,1013.66
2019-01-11T07:07:44.748Z,1013.57
2019-01-11T07:08:44.751Z,1013.64
2019-01-11T07:09:44.717Z,1013.66
2019-01-11T07:10:44.721Z,1013.58
2019-01-11T07:11:44.698Z,1013.59
2019-01-11T07:12:44.697Z,1013.60
2019-01-11T07:13:44.675Z,1013.65
2019-01-11T07:14:44.674Z,1013.61
2019-01-11T07:15:44.667Z,1013.62
2019-01-11T07:16:44.644Z,1013.65
2019-01-11T07:17:44.695Z,1013.66
2019-01-11T07:18:44.622Z,1013.69
2019-01-11T07:19:44.613Z,1013.63
2019-01-11T07:20:44.629Z,1013.65
2019-01-11T07:21:44.589Z,1013.59
2019-01-11T07:22:44.578Z,1013.62
2019-01-11T07:23:44.569Z,1013.74
2019-01-11T07:24:44.560Z,1013.68
2019-01-11T07:25:44.577Z,1013.68
2019-01-11T07:26:44.539Z,1013.65
2019-01-11T07:27:44.523Z,1013.68
2019-01-11T07:28:44.514Z,1013.73
2019-01-11T07:29:44.502Z,1013.70
2019-01-11T07:30:44.499Z,1013.70
2019-01-11T07:31:44.498Z,1013.69
2019-01-11T07:32:44.473Z,1013.68
2019-01-11T07:33:45.311Z,1013.61
2019-01-11T07:36:00.952Z,1013.60
2019-01-11T07:36:57.225Z,1013.57
2019-01-11T07:37:56.217Z,1013.58
2019-01-11T07:38:56.203Z,1013.58
2019-01-11T07:39:56.190Z,1013.53
2019-01-11T07:40:56.176Z,1013.55
2019-01-11T07:41:56.189Z,1013.51
2019-01-11T07:42:56.156Z,1013.49
2019-01-11T07:43:56.158Z,1013.52
2019-01-11T07:44:56.133Z,1013.54
2019-01-11T07:45:56.126Z,1013.47
2019-01-11T07:46:56.126Z,1013.52
2019-01-11T07:47:56.106Z,1013.50
2019-01-11T07:48:56.090Z,1013.51
2019-01-11T07:49:56.103Z,1013.52
2019-01-11T07:50:56.070Z,1013.55
2019-01-11T07:51:56.072Z,1013.58
2019-01-11T07:52:56.050Z,1013.53
2019-01-11T07:53:56.081Z,1013.52
2019-01-11T07:54:56.031Z,1013.52
2019-01-11T07:55:56.030Z,1013.56
2019-01-11T07:56:56.024Z,1013.53
2019-01-11T07:57:55.996Z,1013.58
2019-01-11T07:58:55.994Z,1013.50
2019-01-11T07:59:55.985Z,1013.52
2019-01-11T08:00:55.965Z,1013.47
2019-01-11T08:01:55.972Z,1013.49
2019-01-11T08:02:55.946Z,1013.49
2019-01-11T08:03:55.935Z,1013.56
2019-01-11T08:04:55.953Z,1013.47
2019-01-11T08:05:55.914Z,1013.51
2019-01-11T08:06:55.921Z,1013.46
2019-01-11T08:07:55.898Z,1013.46
2019-01-11T08:08:55.884Z,1013.44
2019-01-11T08:09:55.870Z,1013.39
2019-01-11T08:10:55.863Z,1013.34
2019-01-11T08:11:55.861Z,1013.35
2019-01-11T08:12:55.838Z,1013.24
2019-01-11T08:13:55.828Z,1013.30
2019-01-11T08:14:55.823Z,1013.30
2019-01-11T08:15:55.805Z,1013.24
2019-01-11T08:16:55.838Z,1013.23
2019-01-11T08:17:55.789Z,1013.24
2019-01-11T08:18:55.776Z,1013.22
2019-01-11T08:19:55.766Z,1013.22
2019-01-11T08:20:56.403Z,1013.16
2019-01-11T08:21:55.746Z,1013.12
2019-01-11T08:22:55.743Z,1013.09
2019-01-11T08:23:55.724Z,1013.12
2019-01-11T08:24:55.711Z,1013.13
2019-01-11T08:25:55.702Z,1013.13
2019-01-11T08:26:55.694Z,1013.14
2019-01-11T08:27:55.692Z,1013.05
2019-01-11T08:28:55.667Z,1013.10
2019-01-11T08:29:55.662Z,1013.00
2019-01-11T08:30:55.648Z,1013.03
2019-01-11T08:31:55.642Z,1012.97
2019-01-11T08:32:55.639Z,1012.99
2019-01-11T08:33:55.622Z,1012.98
2019-01-11T08:34:55.617Z,1012.98
2019-01-11T08:35:55.601Z,1012.89
2019-01-11T08:36:55.582Z,1012.94
2019-01-11T08:37:55.587Z,1012.95
2019-01-11T08:38:55.566Z,1012.96
2019-01-11T08:39:55.550Z,1012.95
2019-01-11T08:40:55.543Z,1013.00
2019-01-11T08:41:55.532Z,1013.01
2019-01-11T08:42:55.530Z,1012.97
2019-01-11T08:43:55.508Z,1013.07
2019-01-11T08:44:55.506Z,1012.96
2019-01-11T08:45:55.489Z,1012.93
2019-01-11T08:46:55.480Z,1013.00
2019-01-11T08:47:55.483Z,1012.93
2019-01-11T08:48:55.455Z,1012.86
2019-01-11T08:49:55.445Z,1012.95
2019-01-11T08:50:55.437Z,1012.90
2019-01-11T08:51:55.424Z,1012.89
2019-01-11T08:52:55.426Z,1012.87
2019-01-11T08:53:55.402Z,1012.88
2019-01-11T08:54:55.392Z,1012.86
2019-01-11T08:55:55.379Z,1012.92
2019-01-11T08:56:55.374Z,1012.86
2019-01-11T08:57:55.380Z,1012.84
2019-01-11T08:58:55.389Z,1012.84
2019-01-11T08:59:55.340Z,1012.87
2019-01-11T09:00:55.330Z,1012.77
2019-01-11T09:01:55.318Z,1012.77
2019-01-11T09:02:55.319Z,1012.70
2019-01-11T09:03:55.296Z,1012.71
2019-01-11T09:04:55.311Z,1012.63
2019-01-11T09:05:55.276Z,1012.70
2019-01-11T09:06:55.265Z,1012.68
2019-01-11T09:07:55.267Z,1012.59
2019-01-11T09:08:55.249Z,1012.68
2019-01-11T09:09:55.236Z,1012.56
2019-01-11T09:10:55.222Z,1012.62
2019-01-11T09:11:55.212Z,1012.58
2019-01-11T09:12:55.218Z,1012.62
2019-01-11T09:13:55.190Z,1012.69
2019-01-11T09:14:55.183Z,1012.61
2019-01-11T09:15:55.174Z,1012.60
2019-01-11T09:16:55.159Z,1012.69
2019-01-11T09:17:55.163Z,1012.65
2019-01-11T09:18:55.140Z,1012.67
2019-01-11T09:19:55.136Z,1012.71
2019-01-11T09:20:55.121Z,1012.72
2019-01-11T09:21:55.106Z,1012.64
2019-01-11T09:22:55.113Z,1012.71
2019-01-11T09:23:55.085Z,1012.72
2019-01-11T09:24:55.079Z,1012.66
2019-01-11T09:25:55.065Z,1012.67
2019-01-11T09:26:55.052Z,1012.64
2019-01-11T09:27:55.085Z,1012.59
2019-01-11T09:28:55.032Z,1012.57
2019-01-11T09:29:55.021Z,1012.53
2019-01-11T09:30:55.020Z,1012.48
2019-01-11T09:31:55.002Z,1012.56
2019-01-11T09:32:55.022Z,1012.51
2019-01-11T09:33:54.995Z,1012.49
2019-01-11T09:34:54.973Z,1012.39
2019-01-11T09:35:54.956Z,1012.45
2019-01-11T09:36:54.966Z,1012.41
2019-01-11T09:37:54.949Z,1012.35
2019-01-11T09:38:54.943Z,1012.36
2019-01-11T09:39:54.919Z,1012.29
2019-01-11T09:40:54.905Z,1012.35
2019-01-11T09:41:54.899Z,1012.39
2019-01-11T09:42:54.893Z,1012.34
2019-01-11T09:43:54.898Z,1012.28
2019-01-11T09:44:54.865Z,1012.39
2019-01-11T09:45:54.855Z,1012.35
2019-01-11T09:46:54.843Z,1012.30
2019-01-11T09:47:54.836Z,1012.28
2019-01-11T09:48:54.833Z,1012.30
2019-01-11T09:49:54.808Z,1012.26
2019-01-11T09:50:54.798Z,1012.29
2019-01-11T09:51:54.788Z,1012.29
2019-01-11T09:52:54.777Z,1012.32
2019-01-11T09:53:54.788Z,1012.22
2019-01-11T09:54:54.756Z,1012.33
2019-01-11T09:55:54.747Z,1012.22
2019-01-11T09:57:03.969Z,1012.30
2019-01-11T09:57:54.723Z,1012.21
2019-01-11T09:58:54.723Z,1012.22
2019-01-11T09:59:54.702Z,1012.22
2019-01-11T10:00:59.149Z,1012.16
2019-01-11T10:01:54.694Z,1012.12
2019-01-11T10:02:54.671Z,1012.20
2019-01-11T10:03:54.677Z,1012.21
2019-01-11T10:04:54.659Z,1012.12
2019-01-11T10:05:54.638Z,1012.19
2019-01-11T10:06:54.628Z,1012.15
2019-01-11T10:07:54.621Z,1012.15
2019-01-11T10:08:54.618Z,1012.11
2019-01-11T10:09:54.604Z,1012.11
2019-01-11T10:10:54.588Z,1012.05
2019-01-11T10:11:54.576Z,1012.03
2019-01-11T10:12:54.573Z,1012.10
2019-01-11T10:13:54.570Z,1012.00
2019-01-11T10:14:54.545Z,1011.97
2019-01-11T10:15:54.531Z,1011.96
2019-01-11T10:16:54.548Z,1011.90
2019-01-11T10:17:54.511Z,1011.93
2019-01-11T10:18:54.514Z,1011.85
2019-01-11T10:19:54.492Z,1011.88
2019-01-11T10:20:54.478Z,1011.95
2019-01-11T10:21:54.470Z,1011.85
2019-01-11T10:22:54.468Z,1011.84
2019-01-11T10:23:54.504Z,1011.86
2019-01-11T10:24:54.436Z,1011.88
2019-01-11T10:25:54.430Z,1011.81
2019-01-11T10:26:54.414Z,1011.82
2019-01-11T10:27:54.409Z,1011.76
2019-01-11T10:28:54.395Z,1011.71
2019-01-11T10:29:54.410Z,1011.77
2019-01-11T10:31:00.574Z,1011.65
2019-01-11T10:31:55.362Z,1011.72
2019-01-11T10:32:54.351Z,1011.62
2019-01-11T10:33:54.340Z,1011.69
2019-01-11T10:34:54.402Z,1011.60
2019-01-11T10:35:54.323Z,1011.56
2019-01-11T10:36:54.308Z,1011.56
2019-01-11T10:37:54.298Z,1011.61
2019-01-11T10:38:54.287Z,1011.53
2019-01-11T10:39:54.290Z,1011.50
2019-01-11T10:40:54.269Z,1011.46
2019-01-11T10:41:54.259Z,1011.49
2019-01-11T10:42:54.253Z,1011.44
2019-01-11T10:43:54.235Z,1011.45
2019-01-11T10:44:54.238Z,1011.47
2019-01-11T10:45:54.213Z,1011.47
2019-01-11T10:46:54.204Z,1011.43
2019-01-11T10:47:54.198Z,1011.43
2019-01-11T10:48:54.183Z,1011.44
2019-01-11T10:49:54.184Z,1011.45
2019-01-11T10:50:54.161Z,1011.43
2019-01-11T10:51:54.151Z,1011.38
2019-01-11T10:52:54.139Z,1011.35
2019-01-11T10:53:54.128Z,1011.35
2019-01-11T10:54:54.166Z,1011.35
2019-01-11T10:55:54.109Z,1011.37
2019-01-11T10:56:54.099Z,1011.24
2019-01-11T10:57:54.086Z,1011.31
2019-01-11T10:58:54.076Z,1011.28
2019-01-11T10:59:54.075Z,1011.24
2019-01-11T11:00:54.062Z,1011.29
2019-01-11T11:01:54.045Z,1011.27
2019-01-11T11:02:54.032Z,1011.25
2019-01-11T11:03:54.025Z,1011.24
2019-01-11T11:04:54.024Z,1011.21
2019-01-11T11:05:53.999Z,1011.23
2019-01-11T11:06:53.993Z,1011.17
2019-01-11T11:07:53.979Z,1011.19
2019-01-11T11:08:53.969Z,1011.15
2019-01-11T11:09:53.969Z,1011.20
2019-01-11T11:10:53.956Z,1011.17
2019-01-11T11:11:53.937Z,1011.15
2019-01-11T11:12:53.929Z,1011.14
2019-01-11T11:13:53.916Z,1011.22
2019-01-11T11:14:53.915Z,1011.10
2019-01-11T11:15:53.895Z,1011.01
2019-01-11T11:16:53.885Z,1011.04
2019-01-11T11:17:53.873Z,1011.03
2019-01-11T11:18:53.883Z,1011.01
2019-01-11T11:19:53.891Z,1010.97
2019-01-11T11:20:53.841Z,1010.92
2019-01-11T11:21:53.829Z,1010.94
2019-01-11T11:22:53.821Z,1010.93
2019-01-11T11:23:54.177Z,1010.84
2019-01-11T11:24:53.800Z,1010.83
2019-01-11T11:25:53.809Z,1010.80
2019-01-11T11:26:53.779Z,1010.77
2019-01-11T11:27:53.766Z,1010.81
2019-01-11T11:28:53.755Z,1010.75
2019-01-11T11:29:53.744Z,1010.78
2019-01-11T11:30:54.767Z,1010.73
2019-01-11T11:31:53.722Z,1010.64
2019-01-11T11:32:53.713Z,1010.68
2019-01-11T11:33:53.701Z,1010.64
2019-01-11T11:34:53.693Z,1010.60
2019-01-11T11:35:53.691Z,1010.57
2019-01-11T11:36:53.676Z,1010.56
2019-01-11T11:37:53.669Z,1010.56
2019-01-11T11:38:53.651Z,1010.54
2019-01-11T11:39:53.637Z,1010.50
2019-01-11T11:40:53.640Z,1010.53
2019-01-11T11:41:53.617Z,1010.45
2019-01-11T11:42:53.616Z,1010.49
2019-01-11T11:43:53.600Z,1010.46
2019-01-11T11:44:53.629Z,1010.48
2019-01-11T11:45:53.587Z,1010.43
2019-01-11T11:46:53.562Z,1010.33
2019-01-11T11:47:53.553Z,1010.35
2019-01-11T11:48:53.553Z,1010.36
2019-01-11T11:49:53.531Z,1010.30
2019-01-11T11:50:53.543Z,1010.20
2019-01-11T11:51:53.510Z,1010.28
2019-01-11T11:52:53.501Z,1010.26
2019-01-11T11:53:53.489Z,1010.09
2019-01-11T11:54:53.478Z,1010.14
2019-01-11T11:55:53.479Z,1010.16
2019-01-11T11:56:53.457Z,1010.13
2019-01-11T11:57:53.446Z,1010.13
2019-01-11T11:58:53.534Z,1010.08
2019-01-11T11:59:53.429Z,1010.03
2019-01-11T12:00:53.875Z,1010.11
2019-01-11T12:01:53.411Z,1010.03
2019-01-11T12:02:53.455Z,1009.99
2019-01-11T12:03:53.385Z,1010.02
2019-01-11T12:04:53.372Z,1009.91
2019-01-11T12:05:53.378Z,1009.91
2019-01-11T12:06:53.351Z,1009.91